sensor_id;sensor_type;location;lat;lon;timestamp;temperature;humidity
23681;DHT22;62915;50.832;4.462;2023-05-10T00:02:18;14.60;99.90
23681;DHT22;62915;50.832;4.462;2023-05-10T00:04:44;14.70;99.90
23681;DHT22;62915;50.832;4.462;2023-05-10T00:07:10;14.70;99.90
23681;DHT22;62915;50.832;4.462;2023-05-10T00:09:35;14.60;99.90
23681;DHT22;62915;50.832;4.462;2023-05-10T00:12:01;14.60;99.90
23681;DHT22;62915;50.832;4.462;2023-05-10T00:14:27;14.60;99.90
23681;DHT22;62915;50.832;4.462;2023-05-10T00:16:52;14.60;99.90
23681;DHT22;62915;50.832;4.462;2023-05-10T00:19:18;14.60;99.90
23681;DHT22;62915;50.832;4.462;2023-05-10T00:21:46;14.60;99.90
23681;DHT22;62915;50.832;4.462;2023-05-10T00:24:12;14.60;99.90
23681;DHT22;62915;50.832;4.462;2023-05-10T00:26:40;14.60;99.90
23681;DHT22;62915;50.832;4.462;2023-05-10T00:29:07;14.50;99.90
23681;DHT22;62915;50.832;4.462;2023-05-10T00:31:33;14.50;99.90
23681;DHT22;62915;50.832;4.462;2023-05-10T00:33:59;14.50;99.90
23681;DHT22;62915;50.832;4.462;2023-05-10T00:36:25;14.50;99.90
23681;DHT22;62915;50.832;4.462;2023-05-10T00:38:50;14.50;99.90
23681;DHT22;62915;50.832;4.462;2023-05-10T00:41:16;14.50;99.90
23681;DHT22;62915;50.832;4.462;2023-05-10T00:43:42;14.60;99.90
23681;DHT22;62915;50.832;4.462;2023-05-10T00:46:10;14.60;99.90
23681;DHT22;62915;50.832;4.462;2023-05-10T00:48:39;14.60;99.90
23681;DHT22;62915;50.832;4.462;2023-05-10T00:51:09;14.60;99.90
23681;DHT22;62915;50.832;4.462;2023-05-10T00:53:35;14.60;99.90
23681;DHT22;62915;50.832;4.462;2023-05-10T00:56:04;14.60;99.90
23681;DHT22;62915;50.832;4.462;2023-05-10T00:58:33;14.60;99.90
23681;DHT22;62915;50.832;4.462;2023-05-10T01:01:01;14.50;99.90
23681;DHT22;62915;50.832;4.462;2023-05-10T01:03:30;14.50;99.90
23681;DHT22;62915;50.832;4.462;2023-05-10T01:05:56;14.60;99.90
23681;DHT22;62915;50.832;4.462;2023-05-10T01:08:22;14.60;99.90
23681;DHT22;62915;50.832;4.462;2023-05-10T01:10:48;14.60;99.90
23681;DHT22;62915;50.832;4.462;2023-05-10T01:13:23;14.60;99.90
23681;DHT22;62915;50.832;4.462;2023-05-10T01:15:54;14.60;99.90
23681;DHT22;62915;50.832;4.462;2023-05-10T01:18:20;14.60;99.90
23681;DHT22;62915;50.832;4.462;2023-05-10T01:20:49;14.60;99.90
23681;DHT22;62915;50.832;4.462;2023-05-10T01:23:28;14.60;99.90
23681;DHT22;62915;50.832;4.462;2023-05-10T01:26:02;14.60;99.90
23681;DHT22;62915;50.832;4.462;2023-05-10T01:31:50;14.70;99.90
23681;DHT22;62915;50.832;4.462;2023-05-10T01:34:22;14.70;99.90
23681;DHT22;62915;50.832;4.462;2023-05-10T01:37:06;14.70;99.90
23681;DHT22;62915;50.832;4.462;2023-05-10T01:39:46;14.60;99.90
23681;DHT22;62915;50.832;4.462;2023-05-10T01:42:20;14.60;99.90
23681;DHT22;62915;50.832;4.462;2023-05-10T01:44:58;14.70;99.90
23681;DHT22;62915;50.832;4.462;2023-05-10T01:47:37;14.60;99.90
23681;DHT22;62915;50.832;4.462;2023-05-10T01:50:06;14.60;99.90
23681;DHT22;62915;50.832;4.462;2023-05-10T01:52:42;14.50;99.90
23681;DHT22;62915;50.832;4.462;2023-05-10T01:55:13;14.60;99.90
23681;DHT22;62915;50.832;4.462;2023-05-10T01:57:42;14.60;99.90
23681;DHT22;62915;50.832;4.462;2023-05-10T02:00:09;14.60;99.90
23681;DHT22;62915;50.832;4.462;2023-05-10T02:02:39;14.60;99.90
23681;DHT22;62915;50.832;4.462;2023-05-10T02:05:06;14.60;99.90
23681;DHT22;62915;50.832;4.462;2023-05-10T02:07:37;14.60;99.90
23681;DHT22;62915;50.832;4.462;2023-05-10T02:10:05;14.50;99.90
23681;DHT22;62915;50.832;4.462;2023-05-10T02:12:46;14.50;99.90
23681;DHT22;62915;50.832;4.462;2023-05-10T02:15:17;14.50;99.90
23681;DHT22;62915;50.832;4.462;2023-05-10T02:17:43;14.40;99.90
23681;DHT22;62915;50.832;4.462;2023-05-10T02:20:11;14.30;99.90
23681;DHT22;62915;50.832;4.462;2023-05-10T02:22:39;14.30;99.90
23681;DHT22;62915;50.832;4.462;2023-05-10T02:25:07;14.40;99.90
23681;DHT22;62915;50.832;4.462;2023-05-10T02:27:35;14.30;99.90
23681;DHT22;62915;50.832;4.462;2023-05-10T02:30:02;14.30;99.90
23681;DHT22;62915;50.832;4.462;2023-05-10T02:32:29;14.30;99.90
23681;DHT22;62915;50.832;4.462;2023-05-10T02:34:56;14.40;99.90
23681;DHT22;62915;50.832;4.462;2023-05-10T02:37:22;14.30;99.90
23681;DHT22;62915;50.832;4.462;2023-05-10T02:39:50;14.40;99.90
23681;DHT22;62915;50.832;4.462;2023-05-10T02:42:18;14.50;99.90
23681;DHT22;62915;50.832;4.462;2023-05-10T02:44:47;14.40;99.90
23681;DHT22;62915;50.832;4.462;2023-05-10T02:47:14;14.40;99.90
23681;DHT22;62915;50.832;4.462;2023-05-10T02:49:40;14.40;99.90
23681;DHT22;62915;50.832;4.462;2023-05-10T02:52:06;14.40;99.90
23681;DHT22;62915;50.832;4.462;2023-05-10T02:54:41;14.30;99.90
23681;DHT22;62915;50.832;4.462;2023-05-10T02:57:13;14.30;99.90
23681;DHT22;62915;50.832;4.462;2023-05-10T02:59:40;14.30;99.90
23681;DHT22;62915;50.832;4.462;2023-05-10T03:02:09;14.20;99.90
23681;DHT22;62915;50.832;4.462;2023-05-10T03:04:35;14.20;99.90
23681;DHT22;62915;50.832;4.462;2023-05-10T03:07:02;14.20;99.90
23681;DHT22;62915;50.832;4.462;2023-05-10T03:09:28;14.10;99.90
23681;DHT22;62915;50.832;4.462;2023-05-10T03:12:04;14.10;99.90
23681;DHT22;62915;50.832;4.462;2023-05-10T03:20:15;14.20;99.90
23681;DHT22;62915;50.832;4.462;2023-05-10T03:22:47;14.20;99.90
23681;DHT22;62915;50.832;4.462;2023-05-10T03:25:15;14.10;99.90
23681;DHT22;62915;50.832;4.462;2023-05-10T03:27:43;14.00;99.90
23681;DHT22;62915;50.832;4.462;2023-05-10T03:30:13;14.00;99.90
23681;DHT22;62915;50.832;4.462;2023-05-10T03:32:39;13.90;99.90
23681;DHT22;62915;50.832;4.462;2023-05-10T03:35:12;13.90;99.90
23681;DHT22;62915;50.832;4.462;2023-05-10T03:37:39;13.90;99.90
23681;DHT22;62915;50.832;4.462;2023-05-10T03:40:09;13.90;99.90
23681;DHT22;62915;50.832;4.462;2023-05-10T03:42:37;13.90;99.90
23681;DHT22;62915;50.832;4.462;2023-05-10T03:45:03;13.80;99.90
23681;DHT22;62915;50.832;4.462;2023-05-10T03:47:29;13.80;99.90
23681;DHT22;62915;50.832;4.462;2023-05-10T03:49:55;13.80;99.90
23681;DHT22;62915;50.832;4.462;2023-05-10T03:52:21;13.90;99.90
23681;DHT22;62915;50.832;4.462;2023-05-10T03:54:46;14.00;99.90
23681;DHT22;62915;50.832;4.462;2023-05-10T03:57:12;14.00;99.90
23681;DHT22;62915;50.832;4.462;2023-05-10T03:59:38;14.00;99.90
23681;DHT22;62915;50.832;4.462;2023-05-10T04:02:03;13.90;99.90
23681;DHT22;62915;50.832;4.462;2023-05-10T04:04:29;14.00;99.90
23681;DHT22;62915;50.832;4.462;2023-05-10T04:06:55;13.90;99.90
23681;DHT22;62915;50.832;4.462;2023-05-10T04:09:21;14.00;99.90
23681;DHT22;62915;50.832;4.462;2023-05-10T04:11:51;13.90;99.90
23681;DHT22;62915;50.832;4.462;2023-05-10T04:14:17;13.90;99.90
23681;DHT22;62915;50.832;4.462;2023-05-10T04:16:42;13.90;99.90
23681;DHT22;62915;50.832;4.462;2023-05-10T04:19:08;14.00;99.90
23681;DHT22;62915;50.832;4.462;2023-05-10T04:21:34;13.90;99.90
23681;DHT22;62915;50.832;4.462;2023-05-10T04:23:59;14.10;99.90
23681;DHT22;62915;50.832;4.462;2023-05-10T04:26:25;14.10;99.90
23681;DHT22;62915;50.832;4.462;2023-05-10T04:28:51;14.20;99.90
23681;DHT22;62915;50.832;4.462;2023-05-10T04:31:17;14.20;99.90
23681;DHT22;62915;50.832;4.462;2023-05-10T04:33:42;14.40;99.90
23681;DHT22;62915;50.832;4.462;2023-05-10T04:36:08;14.30;99.90
23681;DHT22;62915;50.832;4.462;2023-05-10T04:38:34;14.30;99.90
23681;DHT22;62915;50.832;4.462;2023-05-10T04:41:10;14.30;99.90
23681;DHT22;62915;50.832;4.462;2023-05-10T04:43:37;14.20;99.90
23681;DHT22;62915;50.832;4.462;2023-05-10T04:46:03;14.00;99.90
23681;DHT22;62915;50.832;4.462;2023-05-10T04:48:29;14.00;99.90
23681;DHT22;62915;50.832;4.462;2023-05-10T04:50:55;14.00;99.90
23681;DHT22;62915;50.832;4.462;2023-05-10T04:53:23;14.00;99.90
23681;DHT22;62915;50.832;4.462;2023-05-10T04:55:49;14.20;99.90
23681;DHT22;62915;50.832;4.462;2023-05-10T04:58:14;14.30;99.90
23681;DHT22;62915;50.832;4.462;2023-05-10T05:00:40;14.30;99.90
23681;DHT22;62915;50.832;4.462;2023-05-10T05:03:07;14.20;99.90
23681;DHT22;62915;50.832;4.462;2023-05-10T05:05:32;14.30;99.90
23681;DHT22;62915;50.832;4.462;2023-05-10T05:08:00;14.40;99.90
23681;DHT22;62915;50.832;4.462;2023-05-10T05:10:26;14.50;99.90
23681;DHT22;62915;50.832;4.462;2023-05-10T05:12:52;14.60;99.90
23681;DHT22;62915;50.832;4.462;2023-05-10T05:15:17;14.60;99.90
23681;DHT22;62915;50.832;4.462;2023-05-10T05:17:43;14.30;99.90
23681;DHT22;62915;50.832;4.462;2023-05-10T05:20:09;14.40;99.90
23681;DHT22;62915;50.832;4.462;2023-05-10T05:22:36;14.40;99.90
23681;DHT22;62915;50.832;4.462;2023-05-10T05:25:02;14.50;99.90
23681;DHT22;62915;50.832;4.462;2023-05-10T05:27:29;14.30;99.90
23681;DHT22;62915;50.832;4.462;2023-05-10T05:29:58;14.40;99.90
23681;DHT22;62915;50.832;4.462;2023-05-10T05:32:24;14.40;99.90
23681;DHT22;62915;50.832;4.462;2023-05-10T05:34:50;14.40;99.90
23681;DHT22;62915;50.832;4.462;2023-05-10T05:37:20;14.30;99.90
23681;DHT22;62915;50.832;4.462;2023-05-10T05:39:49;14.30;99.90
23681;DHT22;62915;50.832;4.462;2023-05-10T05:42:15;14.20;99.90
23681;DHT22;62915;50.832;4.462;2023-05-10T05:44:43;14.10;99.90
23681;DHT22;62915;50.832;4.462;2023-05-10T05:47:09;14.10;99.90
23681;DHT22;62915;50.832;4.462;2023-05-10T05:49:36;14.10;99.90
23681;DHT22;62915;50.832;4.462;2023-05-10T05:52:03;14.10;99.90
23681;DHT22;62915;50.832;4.462;2023-05-10T05:54:29;14.10;99.90
23681;DHT22;62915;50.832;4.462;2023-05-10T05:56:59;14.10;99.90
23681;DHT22;62915;50.832;4.462;2023-05-10T05:59:25;14.00;99.90
23681;DHT22;62915;50.832;4.462;2023-05-10T06:01:53;14.10;99.90
23681;DHT22;62915;50.832;4.462;2023-05-10T06:04:19;14.20;99.90
23681;DHT22;62915;50.832;4.462;2023-05-10T06:06:45;14.20;99.90
23681;DHT22;62915;50.832;4.462;2023-05-10T06:09:11;14.10;99.90
23681;DHT22;62915;50.832;4.462;2023-05-10T06:11:37;14.00;99.90
23681;DHT22;62915;50.832;4.462;2023-05-10T06:14:04;13.90;99.90
23681;DHT22;62915;50.832;4.462;2023-05-10T06:16:30;14.00;99.90
23681;DHT22;62915;50.832;4.462;2023-05-10T06:18:56;14.00;99.90
23681;DHT22;62915;50.832;4.462;2023-05-10T06:21:22;13.90;99.90
23681;DHT22;62915;50.832;4.462;2023-05-10T06:23:48;14.00;99.90
23681;DHT22;62915;50.832;4.462;2023-05-10T06:26:13;13.90;99.90
23681;DHT22;62915;50.832;4.462;2023-05-10T06:28:39;13.90;99.90
23681;DHT22;62915;50.832;4.462;2023-05-10T06:31:06;13.80;99.90
23681;DHT22;62915;50.832;4.462;2023-05-10T06:33:32;14.00;99.90
23681;DHT22;62915;50.832;4.462;2023-05-10T06:35:58;13.80;99.90
23681;DHT22;62915;50.832;4.462;2023-05-10T06:38:24;13.80;99.90
23681;DHT22;62915;50.832;4.462;2023-05-10T06:40:49;13.80;99.90
23681;DHT22;62915;50.832;4.462;2023-05-10T06:43:15;13.80;99.90
23681;DHT22;62915;50.832;4.462;2023-05-10T06:45:41;13.60;99.90
23681;DHT22;62915;50.832;4.462;2023-05-10T06:48:07;13.60;99.90
23681;DHT22;62915;50.832;4.462;2023-05-10T06:50:33;13.70;99.90
23681;DHT22;62915;50.832;4.462;2023-05-10T06:53:00;13.70;99.90
23681;DHT22;62915;50.832;4.462;2023-05-10T06:55:27;13.70;99.90
23681;DHT22;62915;50.832;4.462;2023-05-10T06:57:52;13.60;99.90
23681;DHT22;62915;50.832;4.462;2023-05-10T07:00:19;13.60;99.90
23681;DHT22;62915;50.832;4.462;2023-05-10T07:02:45;13.70;99.90
23681;DHT22;62915;50.832;4.462;2023-05-10T07:05:10;13.80;99.90
23681;DHT22;62915;50.832;4.462;2023-05-10T07:07:37;13.70;99.90
23681;DHT22;62915;50.832;4.462;2023-05-10T07:10:03;13.60;99.90
23681;DHT22;62915;50.832;4.462;2023-05-10T07:12:29;13.50;99.90
23681;DHT22;62915;50.832;4.462;2023-05-10T07:14:54;13.60;99.90
23681;DHT22;62915;50.832;4.462;2023-05-10T07:17:20;13.60;99.90
23681;DHT22;62915;50.832;4.462;2023-05-10T07:19:46;13.60;99.90
23681;DHT22;62915;50.832;4.462;2023-05-10T07:22:11;13.70;99.90
23681;DHT22;62915;50.832;4.462;2023-05-10T07:24:38;13.70;99.90
23681;DHT22;62915;50.832;4.462;2023-05-10T07:27:03;13.60;99.90
23681;DHT22;62915;50.832;4.462;2023-05-10T07:29:30;13.50;99.90
23681;DHT22;62915;50.832;4.462;2023-05-10T07:31:55;13.40;99.90
23681;DHT22;62915;50.832;4.462;2023-05-10T07:34:21;13.30;99.90
23681;DHT22;62915;50.832;4.462;2023-05-10T07:36:47;13.40;99.90
23681;DHT22;62915;50.832;4.462;2023-05-10T07:39:13;13.50;99.90
23681;DHT22;62915;50.832;4.462;2023-05-10T07:41:38;13.50;99.90
23681;DHT22;62915;50.832;4.462;2023-05-10T07:44:05;13.60;99.90
23681;DHT22;62915;50.832;4.462;2023-05-10T07:46:31;13.70;99.90
23681;DHT22;62915;50.832;4.462;2023-05-10T07:48:57;13.70;99.90
23681;DHT22;62915;50.832;4.462;2023-05-10T07:51:22;13.70;99.90
23681;DHT22;62915;50.832;4.462;2023-05-10T07:53:49;13.60;99.90
23681;DHT22;62915;50.832;4.462;2023-05-10T07:56:35;13.60;99.90
23681;DHT22;62915;50.832;4.462;2023-05-10T07:59:02;13.60;99.90
23681;DHT22;62915;50.832;4.462;2023-05-10T08:01:34;13.60;99.90
23681;DHT22;62915;50.832;4.462;2023-05-10T08:04:00;13.60;99.90
23681;DHT22;62915;50.832;4.462;2023-05-10T08:06:27;13.60;99.90
23681;DHT22;62915;50.832;4.462;2023-05-10T08:08:53;13.70;99.90
23681;DHT22;62915;50.832;4.462;2023-05-10T08:11:20;13.70;99.90
23681;DHT22;62915;50.832;4.462;2023-05-10T08:13:47;13.70;99.90
23681;DHT22;62915;50.832;4.462;2023-05-10T08:16:13;13.70;99.90
23681;DHT22;62915;50.832;4.462;2023-05-10T08:18:39;13.50;99.90
23681;DHT22;62915;50.832;4.462;2023-05-10T08:21:06;13.50;99.90
23681;DHT22;62915;50.832;4.462;2023-05-10T08:23:32;13.70;99.90
23681;DHT22;62915;50.832;4.462;2023-05-10T08:25:57;13.70;99.90
23681;DHT22;62915;50.832;4.462;2023-05-10T08:28:23;13.60;99.90
23681;DHT22;62915;50.832;4.462;2023-05-10T08:30:50;13.70;99.90
23681;DHT22;62915;50.832;4.462;2023-05-10T08:33:17;13.70;99.90
23681;DHT22;62915;50.832;4.462;2023-05-10T08:35:43;13.80;99.90
23681;DHT22;62915;50.832;4.462;2023-05-10T08:38:09;13.80;99.90
23681;DHT22;62915;50.832;4.462;2023-05-10T08:40:37;13.90;99.90
23681;DHT22;62915;50.832;4.462;2023-05-10T08:43:08;14.00;99.90
23681;DHT22;62915;50.832;4.462;2023-05-10T08:45:40;13.90;99.90
23681;DHT22;62915;50.832;4.462;2023-05-10T08:48:07;13.90;99.90
23681;DHT22;62915;50.832;4.462;2023-05-10T08:50:36;13.90;99.90
23681;DHT22;62915;50.832;4.462;2023-05-10T08:53:05;13.80;99.90
23681;DHT22;62915;50.832;4.462;2023-05-10T08:55:35;13.90;99.90
23681;DHT22;62915;50.832;4.462;2023-05-10T08:58:06;13.90;99.90
23681;DHT22;62915;50.832;4.462;2023-05-10T09:00:32;14.00;99.90
23681;DHT22;62915;50.832;4.462;2023-05-10T09:02:59;14.10;99.90
23681;DHT22;62915;50.832;4.462;2023-05-10T09:05:25;14.10;99.90
23681;DHT22;62915;50.832;4.462;2023-05-10T09:07:51;14.10;99.90
23681;DHT22;62915;50.832;4.462;2023-05-10T09:10:17;14.10;99.90
23681;DHT22;62915;50.832;4.462;2023-05-10T09:12:44;14.10;99.90
23681;DHT22;62915;50.832;4.462;2023-05-10T09:15:11;14.20;99.90
23681;DHT22;62915;50.832;4.462;2023-05-10T09:17:38;14.10;99.90
23681;DHT22;62915;50.832;4.462;2023-05-10T09:20:06;14.10;99.90
23681;DHT22;62915;50.832;4.462;2023-05-10T09:22:32;14.00;99.90
23681;DHT22;62915;50.832;4.462;2023-05-10T09:25:14;14.10;99.90
23681;DHT22;62915;50.832;4.462;2023-05-10T09:27:41;14.20;99.90
23681;DHT22;62915;50.832;4.462;2023-05-10T09:30:09;14.30;99.90
23681;DHT22;62915;50.832;4.462;2023-05-10T09:37:33;14.20;99.90
23681;DHT22;62915;50.832;4.462;2023-05-10T09:39:59;14.20;99.90
23681;DHT22;62915;50.832;4.462;2023-05-10T09:42:24;14.10;99.90
23681;DHT22;62915;50.832;4.462;2023-05-10T09:44:50;14.30;99.90
23681;DHT22;62915;50.832;4.462;2023-05-10T09:47:19;14.20;99.90
23681;DHT22;62915;50.832;4.462;2023-05-10T09:49:49;14.20;99.90
23681;DHT22;62915;50.832;4.462;2023-05-10T09:52:16;14.20;99.90
23681;DHT22;62915;50.832;4.462;2023-05-10T09:54:52;14.20;99.90
23681;DHT22;62915;50.832;4.462;2023-05-10T09:57:20;14.10;99.90
23681;DHT22;62915;50.832;4.462;2023-05-10T09:59:47;14.10;99.90
23681;DHT22;62915;50.832;4.462;2023-05-10T10:02:13;14.10;99.90
23681;DHT22;62915;50.832;4.462;2023-05-10T10:04:40;13.90;99.90
23681;DHT22;62915;50.832;4.462;2023-05-10T10:07:06;13.80;99.90
23681;DHT22;62915;50.832;4.462;2023-05-10T10:09:33;13.90;99.90
23681;DHT22;62915;50.832;4.462;2023-05-10T10:12:00;14.00;99.90
23681;DHT22;62915;50.832;4.462;2023-05-10T10:14:28;14.00;99.90
23681;DHT22;62915;50.832;4.462;2023-05-10T10:16:54;14.10;99.90
23681;DHT22;62915;50.832;4.462;2023-05-10T10:19:21;14.10;99.90
23681;DHT22;62915;50.832;4.462;2023-05-10T10:21:48;14.10;99.90
23681;DHT22;62915;50.832;4.462;2023-05-10T10:24:14;14.10;99.90
23681;DHT22;62915;50.832;4.462;2023-05-10T10:26:40;14.20;99.90
23681;DHT22;62915;50.832;4.462;2023-05-10T10:30:16;14.30;99.90
23681;DHT22;62915;50.832;4.462;2023-05-10T10:33:09;14.20;99.90
23681;DHT22;62915;50.832;4.462;2023-05-10T10:35:13;14.20;99.90
23681;DHT22;62915;50.832;4.462;2023-05-10T10:37:44;14.30;99.90
23681;DHT22;62915;50.832;4.462;2023-05-10T10:40:30;14.30;99.90
23681;DHT22;62915;50.832;4.462;2023-05-10T10:42:57;14.50;99.90
23681;DHT22;62915;50.832;4.462;2023-05-10T10:45:24;14.40;99.90
23681;DHT22;62915;50.832;4.462;2023-05-10T10:48:19;14.40;99.90
23681;DHT22;62915;50.832;4.462;2023-05-10T10:50:45;14.40;99.90
23681;DHT22;62915;50.832;4.462;2023-05-10T10:53:12;14.60;99.90
23681;DHT22;62915;50.832;4.462;2023-05-10T10:55:47;14.60;99.90
23681;DHT22;62915;50.832;4.462;2023-05-10T10:58:29;14.70;99.90
23681;DHT22;62915;50.832;4.462;2023-05-10T11:01:16;14.70;99.90
23681;DHT22;62915;50.832;4.462;2023-05-10T11:04:16;14.80;99.90
23681;DHT22;62915;50.832;4.462;2023-05-10T11:06:41;14.80;99.90
23681;DHT22;62915;50.832;4.462;2023-05-10T11:09:10;14.90;99.90
23681;DHT22;62915;50.832;4.462;2023-05-10T11:11:52;14.80;99.90
23681;DHT22;62915;50.832;4.462;2023-05-10T11:14:21;14.80;99.90
23681;DHT22;62915;50.832;4.462;2023-05-10T11:16:47;14.80;99.90
23681;DHT22;62915;50.832;4.462;2023-05-10T11:19:15;14.80;99.90
23681;DHT22;62915;50.832;4.462;2023-05-10T11:24:29;15.10;99.90
23681;DHT22;62915;50.832;4.462;2023-05-10T11:26:56;15.00;99.90
23681;DHT22;62915;50.832;4.462;2023-05-10T11:29:22;15.20;99.90
23681;DHT22;62915;50.832;4.462;2023-05-10T11:31:49;15.10;99.90
23681;DHT22;62915;50.832;4.462;2023-05-10T11:34:26;15.20;99.90
23681;DHT22;62915;50.832;4.462;2023-05-10T11:36:53;15.20;99.90
23681;DHT22;62915;50.832;4.462;2023-05-10T11:39:20;15.30;99.90
23681;DHT22;62915;50.832;4.462;2023-05-10T11:41:48;15.40;99.90
23681;DHT22;62915;50.832;4.462;2023-05-10T11:44:14;15.40;99.90
23681;DHT22;62915;50.832;4.462;2023-05-10T11:46:40;15.40;99.90
23681;DHT22;62915;50.832;4.462;2023-05-10T11:49:07;15.40;99.90
23681;DHT22;62915;50.832;4.462;2023-05-10T11:51:34;15.40;99.90
23681;DHT22;62915;50.832;4.462;2023-05-10T11:54:09;15.40;99.90
23681;DHT22;62915;50.832;4.462;2023-05-10T11:56:36;15.40;99.90
23681;DHT22;62915;50.832;4.462;2023-05-10T11:59:01;15.50;99.90
23681;DHT22;62915;50.832;4.462;2023-05-10T12:01:28;15.50;99.90
23681;DHT22;62915;50.832;4.462;2023-05-10T12:03:56;15.40;99.90
23681;DHT22;62915;50.832;4.462;2023-05-10T12:06:34;15.50;99.90
23681;DHT22;62915;50.832;4.462;2023-05-10T12:09:05;15.60;99.90
23681;DHT22;62915;50.832;4.462;2023-05-10T12:11:32;15.70;99.90
23681;DHT22;62915;50.832;4.462;2023-05-10T12:14:04;15.70;99.90
23681;DHT22;62915;50.832;4.462;2023-05-10T12:16:30;15.80;99.90
23681;DHT22;62915;50.832;4.462;2023-05-10T12:18:58;15.80;99.90
23681;DHT22;62915;50.832;4.462;2023-05-10T12:21:25;15.80;99.90
23681;DHT22;62915;50.832;4.462;2023-05-10T12:23:52;15.80;99.90
23681;DHT22;62915;50.832;4.462;2023-05-10T12:26:21;15.80;99.90
23681;DHT22;62915;50.832;4.462;2023-05-10T12:28:47;15.90;99.90
23681;DHT22;62915;50.832;4.462;2023-05-10T12:31:13;16.00;99.90
23681;DHT22;62915;50.832;4.462;2023-05-10T12:33:40;16.10;99.90
23681;DHT22;62915;50.832;4.462;2023-05-10T12:36:11;16.20;99.90
23681;DHT22;62915;50.832;4.462;2023-05-10T12:38:45;16.30;99.90
23681;DHT22;62915;50.832;4.462;2023-05-10T12:41:15;16.40;99.90
23681;DHT22;62915;50.832;4.462;2023-05-10T12:43:41;16.40;99.90
23681;DHT22;62915;50.832;4.462;2023-05-10T12:46:09;16.50;99.90
23681;DHT22;62915;50.832;4.462;2023-05-10T12:48:35;16.50;99.90
23681;DHT22;62915;50.832;4.462;2023-05-10T12:51:02;16.60;99.90
23681;DHT22;62915;50.832;4.462;2023-05-10T12:53:29;16.40;99.90
23681;DHT22;62915;50.832;4.462;2023-05-10T12:55:54;16.50;99.90
23681;DHT22;62915;50.832;4.462;2023-05-10T12:58:20;16.70;99.90
23681;DHT22;62915;50.832;4.462;2023-05-10T13:00:46;16.80;99.90
23681;DHT22;62915;50.832;4.462;2023-05-10T13:03:12;16.70;99.90
23681;DHT22;62915;50.832;4.462;2023-05-10T13:05:38;16.70;99.90
23681;DHT22;62915;50.832;4.462;2023-05-10T13:08:04;16.60;99.90
23681;DHT22;62915;50.832;4.462;2023-05-10T13:10:31;16.50;99.90
23681;DHT22;62915;50.832;4.462;2023-05-10T13:12:58;16.60;99.90
23681;DHT22;62915;50.832;4.462;2023-05-10T13:15:24;16.60;99.90
23681;DHT22;62915;50.832;4.462;2023-05-10T13:17:50;16.60;99.90
23681;DHT22;62915;50.832;4.462;2023-05-10T13:20:16;16.60;99.90
23681;DHT22;62915;50.832;4.462;2023-05-10T13:22:43;16.60;99.90
23681;DHT22;62915;50.832;4.462;2023-05-10T13:25:09;16.60;99.90
23681;DHT22;62915;50.832;4.462;2023-05-10T13:27:34;16.60;99.90
23681;DHT22;62915;50.832;4.462;2023-05-10T13:30:01;16.70;99.90
23681;DHT22;62915;50.832;4.462;2023-05-10T13:32:28;16.80;99.90
23681;DHT22;62915;50.832;4.462;2023-05-10T13:34:55;16.80;99.90
23681;DHT22;62915;50.832;4.462;2023-05-10T13:37:21;16.90;99.90
23681;DHT22;62915;50.832;4.462;2023-05-10T13:39:47;17.00;99.90
23681;DHT22;62915;50.832;4.462;2023-05-10T13:42:13;17.10;99.90
23681;DHT22;62915;50.832;4.462;2023-05-10T13:44:39;17.20;99.90
23681;DHT22;62915;50.832;4.462;2023-05-10T13:47:05;17.10;99.90
23681;DHT22;62915;50.832;4.462;2023-05-10T13:49:30;17.10;99.90
23681;DHT22;62915;50.832;4.462;2023-05-10T13:51:56;17.10;99.90
23681;DHT22;62915;50.832;4.462;2023-05-10T13:54:23;17.00;99.90
23681;DHT22;62915;50.832;4.462;2023-05-10T13:56:49;17.10;99.90
23681;DHT22;62915;50.832;4.462;2023-05-10T13:59:15;17.00;99.90
23681;DHT22;62915;50.832;4.462;2023-05-10T14:01:41;17.00;99.90
23681;DHT22;62915;50.832;4.462;2023-05-10T14:04:08;17.10;99.90
23681;DHT22;62915;50.832;4.462;2023-05-10T14:06:36;17.10;99.90
23681;DHT22;62915;50.832;4.462;2023-05-10T14:09:05;16.90;99.90
23681;DHT22;62915;50.832;4.462;2023-05-10T14:11:30;17.00;99.90
23681;DHT22;62915;50.832;4.462;2023-05-10T14:13:56;17.10;99.90
23681;DHT22;62915;50.832;4.462;2023-05-10T14:16:22;17.10;99.90
23681;DHT22;62915;50.832;4.462;2023-05-10T14:18:48;17.00;99.90
23681;DHT22;62915;50.832;4.462;2023-05-10T14:21:13;17.10;99.90
23681;DHT22;62915;50.832;4.462;2023-05-10T14:23:39;17.10;99.90
23681;DHT22;62915;50.832;4.462;2023-05-10T14:26:05;17.10;99.90
23681;DHT22;62915;50.832;4.462;2023-05-10T14:28:31;17.10;99.90
23681;DHT22;62915;50.832;4.462;2023-05-10T14:30:58;17.00;99.90
23681;DHT22;62915;50.832;4.462;2023-05-10T14:33:24;16.90;99.90
23681;DHT22;62915;50.832;4.462;2023-05-10T14:35:50;16.90;99.90
23681;DHT22;62915;50.832;4.462;2023-05-10T14:38:16;16.70;99.90
23681;DHT22;62915;50.832;4.462;2023-05-10T14:40:42;16.60;99.90
23681;DHT22;62915;50.832;4.462;2023-05-10T14:43:08;16.60;99.90
23681;DHT22;62915;50.832;4.462;2023-05-10T14:45:34;16.50;99.90
23681;DHT22;62915;50.832;4.462;2023-05-10T14:48:00;16.50;99.90
23681;DHT22;62915;50.832;4.462;2023-05-10T14:50:30;16.50;99.90
23681;DHT22;62915;50.832;4.462;2023-05-10T14:52:56;16.40;99.90
23681;DHT22;62915;50.832;4.462;2023-05-10T14:55:22;16.40;99.90
23681;DHT22;62915;50.832;4.462;2023-05-10T14:57:47;16.50;99.90
23681;DHT22;62915;50.832;4.462;2023-05-10T15:00:16;16.40;99.90
23681;DHT22;62915;50.832;4.462;2023-05-10T15:02:42;16.40;99.90
23681;DHT22;62915;50.832;4.462;2023-05-10T15:05:07;16.30;99.90
23681;DHT22;62915;50.832;4.462;2023-05-10T15:07:33;16.30;99.90
23681;DHT22;62915;50.832;4.462;2023-05-10T15:09:59;16.10;99.90
23681;DHT22;62915;50.832;4.462;2023-05-10T15:12:24;16.00;99.90
23681;DHT22;62915;50.832;4.462;2023-05-10T15:14:50;16.00;99.90
23681;DHT22;62915;50.832;4.462;2023-05-10T15:17:16;16.00;99.90
23681;DHT22;62915;50.832;4.462;2023-05-10T15:19:42;16.00;99.90
23681;DHT22;62915;50.832;4.462;2023-05-10T15:22:08;15.90;99.90
23681;DHT22;62915;50.832;4.462;2023-05-10T15:24:34;15.70;99.90
23681;DHT22;62915;50.832;4.462;2023-05-10T15:26:59;15.60;99.90
23681;DHT22;62915;50.832;4.462;2023-05-10T15:29:26;15.60;99.90
23681;DHT22;62915;50.832;4.462;2023-05-10T15:31:52;15.40;99.90
23681;DHT22;62915;50.832;4.462;2023-05-10T15:34:18;15.50;99.90
23681;DHT22;62915;50.832;4.462;2023-05-10T15:36:44;15.60;99.90
23681;DHT22;62915;50.832;4.462;2023-05-10T15:39:11;15.50;99.90
23681;DHT22;62915;50.832;4.462;2023-05-10T15:41:37;15.50;99.90
23681;DHT22;62915;50.832;4.462;2023-05-10T15:44:03;15.50;99.90
23681;DHT22;62915;50.832;4.462;2023-05-10T15:46:29;15.40;99.90
23681;DHT22;62915;50.832;4.462;2023-05-10T15:48:58;15.30;99.90
23681;DHT22;62915;50.832;4.462;2023-05-10T15:51:25;15.40;99.90